createdAt,value
2019-04-22T00:01:13.655Z,42.80
2019-04-22T00:03:50.890Z,35.58
2019-04-22T00:06:39.046Z,38.35
2019-04-22T00:09:15.470Z,39.83
2019-04-22T00:11:45.691Z,35.07
2019-04-22T00:14:06.787Z,33.30
2019-04-22T00:16:56.663Z,44.45
2019-04-22T00:21:47.698Z,39.75
2019-04-22T00:24:18.743Z,36.30
2019-04-22T00:26:54.757Z,36.05
2019-04-22T00:29:57.836Z,40.10
2019-04-22T00:32:03.443Z,38.73
2019-04-22T00:34:35.921Z,35.17
2019-04-22T00:37:15.322Z,31.12
2019-04-22T00:42:15.330Z,38.27
2019-04-22T00:44:58.486Z,34.30
2019-04-22T00:47:23.197Z,36.70
2019-04-22T00:52:24.463Z,36.63
2019-04-22T00:55:00.506Z,39.33
2019-04-22T00:57:21.526Z,38.47
2019-04-22T01:00:03.402Z,35.05
2019-04-22T01:02:30.986Z,42.70
2019-04-22T01:05:01.303Z,36.93
2019-04-22T01:07:25.399Z,41.43
2019-04-22T01:09:58.563Z,40.03
2019-04-22T01:12:31.661Z,35.13
2019-04-22T01:15:00.871Z,37.70
2019-04-22T01:17:34.430Z,38.97
2019-04-22T01:20:13.927Z,43.70
2019-04-22T01:22:33.057Z,40.00
2019-04-22T01:25:02.432Z,43.03
2019-04-22T01:27:32.376Z,40.63
2019-04-22T01:29:59.986Z,40.53
2019-04-22T01:32:26.127Z,40.20
2019-04-22T01:35:03.512Z,44.80
2019-04-22T01:40:16.637Z,41.73
2019-04-22T01:42:56.232Z,45.10
2019-04-22T01:45:22.813Z,38.80
2019-04-22T01:47:49.153Z,38.83
2019-04-22T01:50:23.902Z,43.67
2019-04-22T01:53:00.147Z,48.33
2019-04-22T01:55:34.763Z,51.05
2019-04-22T01:57:53.566Z,44.63
2019-04-22T02:00:15.252Z,44.20
2019-04-22T02:02:59.112Z,48.63
2019-04-22T02:05:31.561Z,41.93
2019-04-22T02:08:06.815Z,52.00
2019-04-22T02:10:39.224Z,40.63
2019-04-22T02:13:11.543Z,44.13
2019-04-22T02:15:46.517Z,38.02
2019-04-22T02:18:18.394Z,44.03
2019-04-22T02:20:40.233Z,40.00
2019-04-22T02:23:42.877Z,44.35
2019-04-22T02:25:59.326Z,44.00
2019-04-22T02:28:32.307Z,45.60
2019-04-22T02:33:57.939Z,44.80
2019-04-22T02:46:22.946Z,43.50
2019-04-22T02:48:53.961Z,46.80
2019-04-22T02:51:21.915Z,45.90
2019-04-22T02:56:23.007Z,47.23
2019-04-22T02:58:55.052Z,48.43
2019-04-22T03:01:24.920Z,55.20
2019-04-22T03:06:26.029Z,45.88
2019-04-22T03:08:59.629Z,46.07
2019-04-22T03:11:24.731Z,51.53
2019-04-22T03:13:57.817Z,55.50
2019-04-22T03:16:26.561Z,53.37
2019-04-22T03:21:23.931Z,52.80
2019-04-22T03:37:14.961Z,47.10
2019-04-22T03:39:31.123Z,51.02
2019-04-22T03:44:18.916Z,56.13
2019-04-22T03:47:02.422Z,58.93
2019-04-22T03:49:28.241Z,46.63
2019-04-22T03:51:56.725Z,53.10
2019-04-22T03:54:19.253Z,54.93
2019-04-22T03:57:22.065Z,48.23
2019-04-22T03:59:33.466Z,49.87
2019-04-22T04:04:35.461Z,57.80
2019-04-22T04:07:01.943Z,58.95
2019-04-22T04:11:59.346Z,59.53
2019-04-22T04:14:32.205Z,60.63
2019-04-22T04:16:56.239Z,60.13
2019-04-22T04:24:46.309Z,61.73
2019-04-22T04:29:45.701Z,61.03
2019-04-22T04:32:07.250Z,62.40
2019-04-22T04:37:07.404Z,63.95
2019-04-22T04:39:40.562Z,58.53
2019-04-22T04:42:18.788Z,58.92
2019-04-22T04:45:00.345Z,63.85
2019-04-22T04:47:21.303Z,55.87
2019-04-22T04:49:45.634Z,61.65
2019-04-22T04:52:17.066Z,58.07
2019-04-22T04:54:49.631Z,54.93
2019-04-22T04:57:17.418Z,63.40
2019-04-22T05:00:11.334Z,61.73
2019-04-22T05:02:20.176Z,59.10
2019-04-22T05:05:00.286Z,63.33
2019-04-22T05:09:44.718Z,63.60
2019-04-22T05:14:46.814Z,68.13
2019-04-22T05:19:47.778Z,70.57
2019-04-22T05:22:21.410Z,73.25
2019-04-22T05:24:51.820Z,63.73
2019-04-22T05:27:32.647Z,62.57
2019-04-22T05:30:10.064Z,66.40
2019-04-22T05:32:27.418Z,67.27
2019-04-22T05:37:27.654Z,71.57
2019-04-22T05:40:06.589Z,70.67
2019-04-22T05:42:26.396Z,68.57
2019-04-22T05:44:55.442Z,69.87
2019-04-22T05:47:32.488Z,68.52
2019-04-22T05:50:03.582Z,72.13
2019-04-22T05:52:35.966Z,67.45
2019-04-22T05:55:09.691Z,69.70
2019-04-22T05:57:31.611Z,72.17
2019-04-22T06:00:14.588Z,74.77
2019-04-22T06:02:47.624Z,70.27
2019-04-22T06:05:14.880Z,71.03
2019-04-22T06:07:38.691Z,70.42
2019-04-22T06:10:19.796Z,67.65
2019-04-22T06:15:16.581Z,65.32
2019-04-22T06:17:56.090Z,61.05
2019-04-22T06:20:19.846Z,63.60
2019-04-22T06:25:27.649Z,57.33
2019-04-22T06:27:54.397Z,58.30
2019-04-22T06:30:28.714Z,48.87
2019-04-22T06:33:02.465Z,55.33
2019-04-22T06:38:21.879Z,50.13
2019-04-22T06:40:31.804Z,58.10
2019-04-22T06:43:03.191Z,51.50
2019-04-22T06:45:33.735Z,54.20
2019-04-22T06:48:13.584Z,44.85
2019-04-22T06:50:41.649Z,39.87
2019-04-22T06:55:41.447Z,39.40
2019-04-22T06:58:10.672Z,38.90
2019-04-22T07:00:42.834Z,42.53
2019-04-22T07:03:34.835Z,43.20
2019-04-22T07:05:46.413Z,36.57
2019-04-22T07:08:45.720Z,43.87
2019-04-22T07:10:47.658Z,43.70
2019-04-22T07:13:23.226Z,40.80
2019-04-22T07:20:59.915Z,37.98
2019-04-22T07:26:08.727Z,42.00
2019-04-22T07:31:01.991Z,38.50
2019-04-22T07:33:32.764Z,36.48
2019-04-22T07:36:23.430Z,43.15
2019-04-22T07:43:55.694Z,33.95
2019-04-22T07:46:07.157Z,32.33
2019-04-22T07:48:43.325Z,30.62
2019-04-22T07:51:07.692Z,25.48
2019-04-22T07:53:33.430Z,34.67
2019-04-22T07:56:11.853Z,25.57
2019-04-22T07:58:42.080Z,24.70
2019-04-22T08:01:14.125Z,31.42
2019-04-22T08:03:51.679Z,32.03
2019-04-22T08:06:29.637Z,22.30
2019-04-22T08:08:46.417Z,21.10
2019-04-22T08:13:46.898Z,25.87
2019-04-22T08:16:17.186Z,26.73
2019-04-22T08:18:45.637Z,17.77
2019-04-22T08:21:16.330Z,18.07
2019-04-22T08:26:27.326Z,24.47
2019-04-22T08:29:03.365Z,19.65
2019-04-22T08:31:32.028Z,16.30
2019-04-22T08:34:01.610Z,22.05
2019-04-22T08:39:01.992Z,17.17
2019-04-22T08:44:00.970Z,13.88
2019-04-22T08:49:05.432Z,17.00
2019-04-22T08:51:29.553Z,15.70
2019-04-22T08:54:07.877Z,16.02
2019-04-22T08:56:43.985Z,15.53
2019-04-22T09:01:40.796Z,14.47
2019-04-22T09:04:10.412Z,15.20
2019-04-22T09:07:02.546Z,13.97
2019-04-22T09:09:17.646Z,12.20
2019-04-22T09:11:47.077Z,16.42
2019-04-22T09:14:16.569Z,11.30
2019-04-22T09:17:06.656Z,17.47
2019-04-22T09:19:17.840Z,10.32
2019-04-22T09:21:56.377Z,11.45
2019-04-22T09:24:23.447Z,10.90
2019-04-22T09:27:10.161Z,10.13
2019-04-22T09:29:32.472Z,14.18
2019-04-22T09:32:00.306Z,11.93
2019-04-22T09:34:28.259Z,12.43
2019-04-22T09:37:07.981Z,11.20
2019-04-22T09:39:29.650Z,13.53
2019-04-22T09:42:05.089Z,9.60
2019-04-22T09:44:36.301Z,8.55
2019-04-22T09:47:07.352Z,11.45
2019-04-22T09:49:44.705Z,10.43
2019-04-22T09:52:10.167Z,8.13
2019-04-22T09:54:51.056Z,10.13
2019-04-22T09:57:15.514Z,11.48
2019-04-22T09:59:51.194Z,8.63
2019-04-22T10:02:25.031Z,10.60
2019-04-22T10:04:47.967Z,11.60
2019-04-22T10:07:23.863Z,11.30
2019-04-22T10:09:59.749Z,11.90
2019-04-22T10:12:30.492Z,7.47
2019-04-22T10:17:25.182Z,7.67
2019-04-22T10:19:53.735Z,7.90
2019-04-22T10:24:56.918Z,11.70
2019-04-22T10:27:29.218Z,13.35
2019-04-22T10:30:00.189Z,11.35
2019-04-22T10:32:33.487Z,9.15
2019-04-22T10:35:02.679Z,13.60
2019-04-22T10:37:28.162Z,7.50
2019-04-22T10:40:02.077Z,9.05
2019-04-22T10:42:31.290Z,9.17
2019-04-22T10:45:01.089Z,10.60
2019-04-22T10:47:31.960Z,13.73
2019-04-22T10:50:04.610Z,15.75
2019-04-22T10:52:37.179Z,12.28
2019-04-22T10:55:11.670Z,11.25
2019-04-22T10:57:42.201Z,10.93
2019-04-22T11:00:13.627Z,12.97
2019-04-22T11:02:43.786Z,15.38
2019-04-22T11:05:14.487Z,8.90
2019-04-22T11:07:51.682Z,15.90
2019-04-22T11:10:27.361Z,12.50
2019-04-22T11:12:47.157Z,10.10
2019-04-22T11:15:18.180Z,10.00
2019-04-22T11:17:49.496Z,15.70
2019-04-22T11:20:19.942Z,13.37
2019-04-22T11:22:51.119Z,10.45
2019-04-22T11:25:21.633Z,9.70
2019-04-22T11:27:51.444Z,12.10
2019-04-22T11:30:24.300Z,9.40
2019-04-22T11:32:54.171Z,16.32
2019-04-22T11:35:23.899Z,8.78
2019-04-22T11:37:54.782Z,8.70
2019-04-22T11:40:32.634Z,10.78
2019-04-22T11:42:59.660Z,10.13
2019-04-22T11:45:29.131Z,8.75
2019-04-22T11:47:59.518Z,13.10
2019-04-22T11:50:30.164Z,15.93
2019-04-22T11:53:00.764Z,12.90
2019-04-22T11:58:01.046Z,21.12
2019-04-22T12:03:07.104Z,11.75
2019-04-22T12:05:37.860Z,14.50
2019-04-22T12:08:09.258Z,13.22
2019-04-22T12:10:48.586Z,10.90
2019-04-22T12:13:12.726Z,9.68
2019-04-22T12:15:42.792Z,13.45
2019-04-22T12:18:13.116Z,16.90
2019-04-22T12:20:43.359Z,10.75
2019-04-22T12:23:14.841Z,14.38
2019-04-22T12:25:53.580Z,12.13
2019-04-22T12:28:17.101Z,6.92
2019-04-22T12:30:48.200Z,19.92
2019-04-22T12:35:46.542Z,13.30
2019-04-22T12:38:17.041Z,10.03
2019-04-22T12:40:56.482Z,12.30
2019-04-22T12:43:23.805Z,16.52
2019-04-22T12:45:52.201Z,26.20
2019-04-22T12:48:23.246Z,12.18
2019-04-22T12:50:55.974Z,17.87
2019-04-22T12:53:27.564Z,7.10
2019-04-22T12:55:55.871Z,14.43
2019-04-22T13:00:55.303Z,16.73
2019-04-22T13:03:26.100Z,8.65
2019-04-22T13:06:01.573Z,10.63
2019-04-22T13:08:31.717Z,12.18
2019-04-22T13:11:08.658Z,19.00
2019-04-22T13:13:34.393Z,10.23
2019-04-22T13:16:04.731Z,10.88
2019-04-22T13:18:42.045Z,8.40
2019-04-22T13:21:07.022Z,16.35
2019-04-22T13:23:41.304Z,12.07
2019-04-22T13:26:12.655Z,10.23
2019-04-22T13:28:43.128Z,20.05
2019-04-22T13:31:16.076Z,19.23
2019-04-22T13:33:46.714Z,28.32
2019-04-22T13:36:20.664Z,19.55
2019-04-22T13:38:49.202Z,10.58
2019-04-22T13:41:28.910Z,22.03
2019-04-22T13:46:21.863Z,20.82
2019-04-22T13:49:14.559Z,10.88
2019-04-22T13:51:52.481Z,16.47
2019-04-22T13:56:49.152Z,13.00
2019-04-22T13:59:09.129Z,7.53
2019-04-22T14:04:07.109Z,13.75
2019-04-22T14:06:36.768Z,10.90
2019-04-22T14:09:09.579Z,9.60
2019-04-22T14:11:49.316Z,13.60
2019-04-22T14:14:12.610Z,8.63
2019-04-22T14:16:46.904Z,10.48
2019-04-22T14:19:18.540Z,9.15
2019-04-22T14:21:49.730Z,15.72
2019-04-22T14:24:19.825Z,11.22
2019-04-22T14:27:03.582Z,10.68
2019-04-22T14:29:22.076Z,10.13
2019-04-22T14:32:03.837Z,10.38
2019-04-22T14:34:24.264Z,13.20
2019-04-22T14:36:55.254Z,8.43
2019-04-22T14:39:26.139Z,14.93
2019-04-22T14:47:20.050Z,14.50
2019-04-22T14:49:52.853Z,8.88
2019-04-22T14:52:22.774Z,10.43
2019-04-22T14:54:45.914Z,5.78
2019-04-22T14:57:03.338Z,9.40
2019-04-22T14:59:32.951Z,7.17
2019-04-22T15:02:03.513Z,11.48
2019-04-22T15:04:33.127Z,8.15
2019-04-22T15:07:03.065Z,9.60
2019-04-22T15:09:32.622Z,7.77
2019-04-22T15:12:11.019Z,16.87
2019-04-22T15:14:33.233Z,8.28
2019-04-22T15:17:11.008Z,11.50
2019-04-22T15:19:45.569Z,5.37
2019-04-22T15:22:15.069Z,8.75
2019-04-22T15:24:45.051Z,9.80
2019-04-22T15:27:16.365Z,7.83
2019-04-22T15:29:47.321Z,6.67
2019-04-22T15:32:17.618Z,9.43
2019-04-22T15:34:49.110Z,7.17
2019-04-22T15:37:20.345Z,17.93
2019-04-22T15:39:49.884Z,7.28
2019-04-22T15:42:25.736Z,7.45
2019-04-22T15:44:51.684Z,11.33
2019-04-22T15:49:50.272Z,7.22
2019-04-22T15:52:30.292Z,8.75
2019-04-22T15:54:53.785Z,107.83
2019-04-22T15:57:22.540Z,50.70
2019-04-22T16:00:06.796Z,9.28
2019-04-22T16:02:25.654Z,6.50
2019-04-22T16:04:55.168Z,7.72
2019-04-22T16:07:25.997Z,14.57
2019-04-22T16:09:55.601Z,17.55
2019-04-22T16:12:30.748Z,13.48
2019-04-22T16:17:26.541Z,13.62
2019-04-22T16:19:57.180Z,10.78
2019-04-22T16:22:28.817Z,12.90
2019-04-22T16:25:02.338Z,36.40
2019-04-22T16:27:32.056Z,62.93
2019-04-22T16:30:01.743Z,45.65
2019-04-22T16:32:31.946Z,56.83
2019-04-22T16:35:02.595Z,70.92
2019-04-22T16:37:32.765Z,63.92
2019-04-22T16:40:03.073Z,13.63
2019-04-22T16:42:41.305Z,9.03
2019-04-22T16:45:04.531Z,13.60
2019-04-22T16:47:35.440Z,8.87
2019-04-22T16:50:08.096Z,10.93
2019-04-22T16:52:37.670Z,15.83
2019-04-22T16:55:08.748Z,28.62
2019-04-22T16:57:39.726Z,41.20
2019-04-22T17:00:11.250Z,14.73
2019-04-22T17:03:00.635Z,20.12
2019-04-22T17:05:37.728Z,84.87
2019-04-22T17:08:08.205Z,142.10
2019-04-22T17:10:37.983Z,30.10
2019-04-22T17:13:11.959Z,25.37
2019-04-22T17:15:39.657Z,26.33
2019-04-22T17:18:09.638Z,15.20
2019-04-22T17:20:40.474Z,39.20
2019-04-22T17:23:11.554Z,57.65
2019-04-22T17:28:10.094Z,29.54
2019-04-22T17:30:39.745Z,21.55
2019-04-22T17:33:10.510Z,15.40
2019-04-22T17:35:41.099Z,15.38
2019-04-22T17:38:20.997Z,19.13
2019-04-22T17:40:56.830Z,13.28
2019-04-22T17:43:52.297Z,12.33
2019-04-22T17:46:24.701Z,10.40
2019-04-22T17:48:57.610Z,12.37
2019-04-22T17:51:39.652Z,18.75
2019-04-22T17:54:02.397Z,13.80
2019-04-22T17:56:32.511Z,9.00
2019-04-22T17:59:02.613Z,10.58
2019-04-22T18:01:35.602Z,13.03
2019-04-22T18:03:51.373Z,12.15
2019-04-22T18:06:44.169Z,7.75
2019-04-22T18:09:08.100Z,10.82
2019-04-22T18:11:56.483Z,12.85
2019-04-22T18:14:37.906Z,13.70
2019-04-22T18:16:41.453Z,13.88
2019-04-22T18:19:15.390Z,15.93
2019-04-22T18:21:41.212Z,12.15
2019-04-22T18:24:08.122Z,8.50
2019-04-22T18:26:49.028Z,12.58
2019-04-22T18:29:17.455Z,6.00
2019-04-22T18:31:43.254Z,11.70
2019-04-22T18:36:53.711Z,12.85
2019-04-22T18:39:31.623Z,8.48
2019-04-22T18:41:57.412Z,7.00
2019-04-22T18:44:37.392Z,10.82
2019-04-22T18:47:03.718Z,14.33
2019-04-22T18:49:39.199Z,10.10
2019-04-22T18:52:25.801Z,10.58
2019-04-22T18:55:02.507Z,13.45
2019-04-22T18:57:32.630Z,19.07
2019-04-22T18:59:53.894Z,8.90
2019-04-22T19:02:21.542Z,9.05
2019-04-22T19:05:01.360Z,9.43
2019-04-22T19:07:44.305Z,10.63
2019-04-22T19:10:27.393Z,10.72
2019-04-22T19:15:18.916Z,12.75
2019-04-22T19:17:54.394Z,11.53
2019-04-22T19:20:23.813Z,8.98
2019-04-22T19:22:55.421Z,16.77
2019-04-22T19:25:15.373Z,7.62
2019-04-22T19:27:48.408Z,8.98
2019-04-22T19:30:21.909Z,10.90
2019-04-22T19:33:02.781Z,5.92
2019-04-22T19:35:22.541Z,8.18
2019-04-22T19:37:53.670Z,11.93
2019-04-22T19:40:57.566Z,7.97
2019-04-22T19:43:22.972Z,13.03
2019-04-22T19:45:50.619Z,7.60
2019-04-22T19:48:27.092Z,9.25
2019-04-22T19:53:32.101Z,11.80
2019-04-22T19:55:58.594Z,6.92
2019-04-22T19:58:26.170Z,6.97
2019-04-22T20:01:13.473Z,8.28
2019-04-22T20:06:35.044Z,5.75
2019-04-22T20:09:13.580Z,8.43
2019-04-22T20:11:43.793Z,6.53
2019-04-22T20:14:16.893Z,13.30
2019-04-22T20:16:46.269Z,10.72
2019-04-22T20:21:51.255Z,11.25
2019-04-22T20:24:12.863Z,7.85
2019-04-22T20:29:31.112Z,9.00
2019-04-22T20:31:59.106Z,7.08
2019-04-22T20:34:35.512Z,9.57
2019-04-22T20:39:38.072Z,10.90
2019-04-22T20:42:16.555Z,7.37
2019-04-22T20:44:39.738Z,6.73
2019-04-22T20:47:07.732Z,12.95
2019-04-22T20:52:13.651Z,8.08
2019-04-22T20:54:40.588Z,9.27
2019-04-22T20:57:09.452Z,13.27
2019-04-22T20:59:37.175Z,11.30
2019-04-22T21:02:07.251Z,6.80
2019-04-22T21:04:38.290Z,10.60
2019-04-22T21:07:13.851Z,22.37
2019-04-22T21:09:43.210Z,9.77
2019-04-22T21:12:14.906Z,8.87
2019-04-22T21:14:57.296Z,11.83
2019-04-22T21:17:17.994Z,16.23
2019-04-22T21:20:15.524Z,10.30
2019-04-22T21:22:26.666Z,9.03
2019-04-22T21:24:53.593Z,17.77
2019-04-22T21:27:28.800Z,10.53
2019-04-22T21:29:53.275Z,10.97
2019-04-22T21:32:31.287Z,10.40
2019-04-22T21:35:09.955Z,12.35
2019-04-22T21:37:37.769Z,8.83
2019-04-22T21:39:59.072Z,9.83
2019-04-22T21:42:41.022Z,7.50
2019-04-22T21:45:03.322Z,9.77
2019-04-22T21:47:47.731Z,10.63
2019-04-22T21:50:28.162Z,8.43
2019-04-22T21:52:40.693Z,11.67
2019-04-22T21:55:14.475Z,8.10
2019-04-22T21:57:55.540Z,11.17
2019-04-22T22:00:32.774Z,7.17
2019-04-22T22:03:00.643Z,8.38
2019-04-22T22:05:20.083Z,9.45
2019-04-22T22:07:51.087Z,6.03
2019-04-22T22:10:33.880Z,7.97
2019-04-22T22:13:06.623Z,9.93
2019-04-22T22:18:06.843Z,8.15
2019-04-22T22:20:45.336Z,8.47
2019-04-22T22:23:16.084Z,11.45
2019-04-22T22:25:34.972Z,9.93
2019-04-22T22:28:29.436Z,8.27
2019-04-22T22:30:47.659Z,6.40
2019-04-22T22:33:10.954Z,11.40
2019-04-22T22:35:40.830Z,9.23
2019-04-22T22:38:11.977Z,8.53
2019-04-22T22:40:28.569Z,12.40
2019-04-22T22:42:58.994Z,8.53
2019-04-22T22:45:37.193Z,9.50
2019-04-22T22:48:26.684Z,10.10
2019-04-22T22:50:50.829Z,10.87
2019-04-22T22:53:31.019Z,10.00
2019-04-22T22:55:54.782Z,6.22
2019-04-22T22:58:27.762Z,5.95
2019-04-22T23:00:53.588Z,8.10
2019-04-22T23:03:46.017Z,8.07
2019-04-22T23:06:03.192Z,7.10
2019-04-22T23:08:34.369Z,7.67
2019-04-22T23:11:22.288Z,7.30
2019-04-22T23:13:38.939Z,18.33
2019-04-22T23:16:00.929Z,9.30
2019-04-22T23:18:16.219Z,6.00
2019-04-22T23:20:49.603Z,8.33
2019-04-22T23:23:38.176Z,10.45
2019-04-22T23:26:07.334Z,5.57
2019-04-22T23:28:29.832Z,5.60
2019-04-22T23:31:05.507Z,7.42
2019-04-22T23:33:57.251Z,8.45
2019-04-22T23:36:27.905Z,7.72
2019-04-22T23:39:13.939Z,9.35
2019-04-22T23:41:48.565Z,7.17
2019-04-22T23:44:13.853Z,5.33
2019-04-22T23:46:41.521Z,5.30
2019-04-22T23:49:16.254Z,11.20
2019-04-22T23:51:55.346Z,8.53
2019-04-22T23:54:20.416Z,7.27
2019-04-22T23:56:43.231Z,6.70
